createdAt,value
2022-08-23T00:00:39.710Z,18.00
2022-08-23T00:02:44.348Z,18.10
2022-08-23T00:05:07.444Z,18.10
2022-08-23T00:07:16.282Z,18.00
2022-08-23T00:09:21.228Z,18.00
2022-08-23T00:11:34.078Z,18.10
2022-08-23T00:13:47.759Z,18.20
2022-08-23T00:15:52.233Z,18.20
2022-08-23T00:17:56.022Z,18.10
2022-08-23T00:19:59.975Z,18.10
2022-08-23T00:22:04.483Z,17.90
2022-08-23T00:24:11.403Z,17.90
2022-08-23T00:26:15.347Z,17.80
2022-08-23T00:28:21.054Z,17.70
2022-08-23T00:30:24.929Z,17.60
2022-08-23T00:32:31.809Z,17.50
2022-08-23T00:34:35.649Z,17.50
2022-08-23T00:36:40.754Z,17.50
2022-08-23T00:38:47.767Z,17.60
2022-08-23T00:40:54.911Z,17.50
2022-08-23T00:43:20.078Z,17.40
2022-08-23T00:45:50.115Z,17.40
2022-08-23T00:47:54.182Z,17.30
2022-08-23T00:50:19.282Z,17.20
2022-08-23T00:52:33.809Z,17.10
2022-08-23T00:54:39.387Z,17.10
2022-08-23T00:56:44.469Z,17.10
2022-08-23T00:58:50.510Z,17.00
2022-08-23T01:00:58.478Z,17.00
2022-08-23T01:03:03.470Z,17.00
2022-08-23T01:05:09.851Z,17.00
2022-08-23T01:07:21.586Z,16.90
2022-08-23T01:09:28.690Z,16.90
2022-08-23T01:11:39.105Z,16.90
2022-08-23T01:13:46.931Z,16.80
2022-08-23T01:15:55.249Z,16.80
2022-08-23T01:18:06.123Z,16.90
2022-08-23T01:20:13.594Z,16.90
2022-08-23T01:22:24.246Z,16.80
2022-08-23T01:24:59.598Z,16.80
2022-08-23T01:26:54.927Z,16.80
2022-08-23T01:29:00.706Z,16.80
2022-08-23T01:31:06.742Z,16.80
2022-08-23T01:33:11.000Z,16.60
2022-08-23T01:35:16.542Z,16.60
2022-08-23T01:37:22.441Z,16.60
2022-08-23T01:39:26.390Z,16.60
2022-08-23T01:41:31.997Z,16.50
2022-08-23T01:43:36.348Z,16.50
2022-08-23T01:45:41.311Z,16.40
2022-08-23T01:47:45.633Z,16.40
2022-08-23T01:49:49.982Z,16.40
2022-08-23T01:51:53.735Z,16.40
2022-08-23T01:53:59.639Z,16.30
2022-08-23T01:56:04.272Z,16.40
2022-08-23T01:58:10.874Z,16.30
2022-08-23T02:00:15.341Z,16.20
2022-08-23T02:02:21.625Z,16.00
2022-08-23T02:04:25.853Z,16.00
2022-08-23T02:06:29.842Z,15.90
2022-08-23T02:08:52.132Z,15.90
2022-08-23T02:10:56.510Z,15.90
2022-08-23T02:13:00.684Z,15.90
2022-08-23T02:15:07.979Z,15.90
2022-08-23T02:17:11.855Z,15.80
2022-08-23T02:19:16.722Z,15.80
2022-08-23T02:21:20.935Z,15.80
2022-08-23T02:23:25.216Z,15.80
2022-08-23T02:25:29.206Z,15.80
2022-08-23T02:27:32.781Z,15.80
2022-08-23T02:29:39.547Z,15.90
2022-08-23T02:31:45.450Z,15.90
2022-08-23T02:33:49.763Z,16.00
2022-08-23T02:35:53.690Z,15.90
2022-08-23T02:37:57.318Z,15.90
2022-08-23T02:40:02.578Z,15.90
2022-08-23T02:42:07.089Z,15.90
2022-08-23T02:44:12.233Z,15.90
2022-08-23T02:46:16.131Z,15.90
2022-08-23T02:48:22.585Z,15.90
2022-08-23T02:50:27.138Z,15.80
2022-08-23T02:52:31.289Z,15.80
2022-08-23T02:54:35.748Z,15.80
2022-08-23T02:56:39.946Z,15.80
2022-08-23T02:58:45.778Z,15.80
2022-08-23T03:00:52.281Z,15.70
2022-08-23T03:02:58.735Z,15.70
2022-08-23T03:05:04.216Z,15.70
2022-08-23T03:07:08.290Z,15.70
2022-08-23T03:09:12.858Z,15.60
2022-08-23T03:11:20.911Z,15.60
2022-08-23T03:13:25.132Z,15.60
2022-08-23T03:15:28.907Z,15.60
2022-08-23T03:17:32.799Z,15.60
2022-08-23T03:19:36.833Z,15.50
2022-08-23T03:21:43.434Z,15.50
2022-08-23T03:23:49.774Z,15.50
2022-08-23T03:25:54.177Z,15.50
2022-08-23T03:27:58.516Z,15.50
2022-08-23T03:30:02.131Z,15.50
2022-08-23T03:32:06.782Z,15.40
2022-08-23T03:34:11.356Z,15.40
2022-08-23T03:36:15.114Z,15.40
2022-08-23T03:38:21.325Z,15.30
2022-08-23T03:40:25.118Z,15.40
2022-08-23T03:42:30.792Z,15.40
2022-08-23T03:44:34.842Z,15.30
2022-08-23T03:46:38.614Z,15.40
2022-08-23T03:48:42.878Z,15.30
2022-08-23T03:50:47.675Z,15.30
2022-08-23T03:52:51.574Z,15.30
2022-08-23T03:54:57.010Z,15.40
2022-08-23T03:57:03.196Z,15.40
2022-08-23T04:01:12.209Z,15.30
2022-08-23T04:03:16.181Z,15.30
2022-08-23T04:05:20.539Z,15.30
2022-08-23T04:07:25.139Z,15.30
2022-08-23T04:11:33.806Z,15.30
2022-08-23T04:13:38.335Z,15.40
2022-08-23T04:15:43.403Z,15.40
2022-08-23T04:17:47.251Z,15.40
2022-08-23T04:19:52.113Z,15.40
2022-08-23T04:21:55.875Z,15.40
2022-08-23T04:24:00.197Z,15.30
2022-08-23T04:26:06.556Z,15.30
2022-08-23T04:28:15.291Z,15.40
2022-08-23T04:30:21.054Z,15.40
2022-08-23T04:32:28.282Z,15.30
2022-08-23T04:34:32.927Z,15.30
2022-08-23T04:36:40.136Z,15.30
2022-08-23T04:41:11.109Z,15.40
2022-08-23T04:47:25.859Z,15.40
2022-08-23T04:49:30.041Z,15.30
2022-08-23T04:51:34.239Z,15.30
2022-08-23T04:53:38.342Z,15.40
2022-08-23T04:55:42.214Z,15.40
2022-08-23T04:59:52.057Z,15.30
2022-08-23T05:01:56.080Z,15.30
2022-08-23T05:06:05.303Z,15.40
2022-08-23T05:08:09.771Z,15.40
2022-08-23T05:10:15.812Z,15.50
2022-08-23T05:12:19.645Z,15.40
2022-08-23T05:14:27.004Z,15.40
2022-08-23T05:16:32.647Z,15.40
2022-08-23T05:20:42.249Z,15.40
2022-08-23T05:22:45.995Z,15.40
2022-08-23T05:24:50.202Z,15.50
2022-08-23T05:26:54.568Z,15.50
2022-08-23T05:31:11.554Z,15.30
2022-08-23T05:33:17.326Z,15.40
2022-08-23T05:37:26.883Z,15.40
2022-08-23T05:39:36.546Z,15.30
2022-08-23T05:41:41.736Z,15.40
2022-08-23T05:43:45.617Z,15.40
2022-08-23T05:47:55.690Z,15.30
2022-08-23T05:50:02.575Z,15.30
2022-08-23T05:52:07.165Z,15.30
2022-08-23T05:54:11.515Z,15.40
2022-08-23T05:56:20.475Z,15.30
2022-08-23T05:58:24.035Z,15.30
2022-08-23T06:00:37.362Z,15.30
2022-08-23T06:02:43.392Z,15.30
2022-08-23T06:06:52.499Z,15.30
2022-08-23T06:08:56.071Z,15.30
2022-08-23T06:11:05.207Z,15.30
2022-08-23T06:13:09.385Z,15.30
2022-08-23T06:17:17.482Z,15.40
2022-08-23T06:19:21.030Z,15.40
2022-08-23T06:21:25.113Z,15.50
2022-08-23T06:23:33.709Z,15.50
2022-08-23T06:25:40.893Z,15.40
2022-08-23T06:27:44.910Z,15.50
2022-08-23T06:29:50.723Z,15.60
2022-08-23T06:31:57.801Z,15.60
2022-08-23T06:34:01.599Z,15.60
2022-08-23T06:36:07.593Z,15.70
2022-08-23T06:38:11.382Z,15.80
2022-08-23T06:42:38.403Z,16.00
2022-08-23T06:44:44.230Z,15.90
2022-08-23T06:46:50.339Z,16.00
2022-08-23T06:48:55.364Z,16.00
2022-08-23T06:53:13.129Z,16.20
2022-08-23T06:55:19.112Z,16.20
2022-08-23T06:57:23.123Z,16.30
2022-08-23T06:59:27.632Z,16.30
2022-08-23T07:01:45.782Z,16.50
2022-08-23T07:03:57.118Z,16.70
2022-08-23T07:06:03.313Z,16.90
2022-08-23T07:08:07.388Z,17.10
2022-08-23T07:12:17.354Z,17.30
2022-08-23T07:14:23.408Z,17.60
2022-08-23T07:16:27.975Z,17.70
2022-08-23T07:18:32.143Z,17.90
2022-08-23T07:22:40.299Z,18.00
2022-08-23T07:24:44.478Z,18.10
2022-08-23T07:26:50.240Z,18.10
2022-08-23T07:31:12.349Z,17.90
2022-08-23T07:35:26.447Z,17.60
2022-08-23T07:37:32.908Z,17.70
2022-08-23T07:39:36.443Z,17.90
2022-08-23T07:41:44.257Z,17.90
2022-08-23T07:45:54.524Z,18.20
2022-08-23T07:50:04.658Z,18.50
2022-08-23T07:52:08.563Z,18.80
2022-08-23T07:54:13.067Z,19.20
2022-08-23T07:56:20.393Z,19.70
2022-08-23T08:00:38.648Z,20.40
2022-08-23T08:02:44.386Z,20.60
2022-08-23T08:04:49.197Z,20.90
2022-08-23T08:07:17.241Z,21.10
2022-08-23T08:09:20.511Z,22.10
2022-08-23T08:11:30.896Z,23.50
2022-08-23T08:13:43.809Z,24.10
2022-08-23T08:15:48.492Z,24.00
2022-08-23T08:17:58.867Z,23.80
2022-08-23T08:20:05.336Z,23.30
2022-08-23T08:22:09.768Z,22.80
2022-08-23T08:24:17.311Z,22.70
2022-08-23T08:26:23.232Z,22.90
2022-08-23T08:30:31.671Z,23.10
2022-08-23T08:32:36.067Z,23.30
2022-08-23T08:34:41.751Z,22.90
2022-08-23T08:41:11.178Z,23.40
2022-08-23T08:43:36.081Z,23.80
2022-08-23T08:45:59.026Z,24.00
2022-08-23T08:50:19.908Z,23.70
2022-08-23T08:52:31.083Z,23.90
2022-08-23T08:54:37.535Z,24.60
2022-08-23T08:58:55.032Z,24.80
2022-08-23T09:00:59.427Z,24.70
2022-08-23T09:03:14.778Z,24.30
2022-08-23T09:05:29.631Z,23.70
2022-08-23T09:07:45.229Z,23.30
2022-08-23T09:10:23.130Z,23.00
2022-08-23T09:12:45.845Z,22.80
2022-08-23T09:15:06.067Z,23.00
2022-08-23T09:17:23.889Z,22.70
2022-08-23T09:19:32.884Z,22.40
2022-08-23T09:21:50.955Z,22.00
2022-08-23T09:24:00.628Z,21.80
2022-08-23T09:26:18.036Z,21.80
2022-08-23T09:28:23.239Z,21.70
2022-08-23T09:30:50.926Z,21.80
2022-08-23T09:32:56.221Z,21.40
2022-08-23T09:35:13.005Z,21.30
2022-08-23T09:37:22.687Z,21.30
2022-08-23T09:39:32.014Z,21.10
2022-08-23T09:41:41.717Z,21.20
2022-08-23T09:43:49.363Z,21.20
2022-08-23T09:46:02.920Z,21.20
2022-08-23T09:48:15.727Z,21.10
2022-08-23T09:50:27.707Z,21.20
2022-08-23T09:52:40.216Z,20.90
2022-08-23T09:54:47.587Z,20.90
2022-08-23T09:56:55.298Z,20.90
2022-08-23T09:58:59.264Z,20.90
2022-08-23T10:01:15.809Z,21.00
2022-08-23T10:03:26.441Z,21.20
2022-08-23T10:05:46.115Z,21.20
2022-08-23T10:08:00.372Z,21.20
2022-08-23T10:10:24.079Z,21.10
2022-08-23T10:12:30.206Z,21.30
2022-08-23T10:14:35.644Z,21.70
2022-08-23T10:16:51.877Z,21.90
2022-08-23T10:19:04.045Z,22.30
2022-08-23T10:21:15.526Z,22.40
2022-08-23T10:23:36.763Z,22.40
2022-08-23T10:25:46.416Z,22.40
2022-08-23T10:28:16.794Z,22.50
2022-08-23T10:30:25.330Z,22.50
2022-08-23T10:32:43.099Z,22.20
2022-08-23T10:35:02.893Z,22.40
2022-08-23T10:37:30.452Z,22.50
2022-08-23T10:39:41.920Z,22.30
2022-08-23T10:41:56.297Z,22.30
2022-08-23T10:44:09.040Z,22.00
2022-08-23T10:46:13.303Z,21.90
2022-08-23T10:48:29.004Z,21.70
2022-08-23T10:50:55.412Z,21.60
2022-08-23T10:53:06.699Z,21.20
2022-08-23T10:55:44.073Z,21.00
2022-08-23T10:57:50.916Z,21.00
2022-08-23T10:59:55.832Z,20.80
2022-08-23T11:02:06.369Z,20.70
2022-08-23T11:04:21.747Z,20.70
2022-08-23T11:06:44.990Z,20.60
2022-08-23T11:08:49.898Z,20.40
2022-08-23T11:10:56.695Z,20.50
2022-08-23T11:13:07.744Z,20.30
2022-08-23T11:15:20.707Z,20.10
2022-08-23T11:17:30.942Z,20.00
2022-08-23T11:19:54.510Z,19.80
2022-08-23T11:22:15.635Z,19.50
2022-08-23T11:24:51.027Z,19.40
2022-08-23T11:27:07.939Z,19.30
2022-08-23T11:29:33.373Z,19.50
2022-08-23T11:33:54.510Z,19.30
2022-08-23T11:36:21.807Z,19.40
2022-08-23T11:39:03.683Z,19.50
2022-08-23T11:41:22.177Z,19.60
2022-08-23T11:43:32.228Z,19.60
2022-08-23T11:45:47.024Z,19.70
2022-08-23T11:48:07.824Z,19.90
2022-08-23T11:50:28.170Z,19.90
2022-08-23T11:54:57.820Z,20.20
2022-08-23T11:57:19.717Z,20.40
2022-08-23T12:01:56.683Z,20.50
2022-08-23T12:04:10.730Z,20.70
2022-08-23T12:06:51.133Z,20.70
2022-08-23T12:09:01.917Z,20.70
2022-08-23T12:11:09.504Z,20.80
2022-08-23T12:13:34.001Z,20.60
2022-08-23T12:16:16.331Z,20.70
2022-08-23T12:18:25.006Z,20.60
2022-08-23T12:20:32.490Z,20.60
2022-08-23T12:22:58.208Z,20.50
2022-08-23T12:25:05.508Z,20.40
2022-08-23T12:27:23.414Z,20.50
2022-08-23T12:29:50.075Z,20.80
2022-08-23T12:34:17.658Z,20.80
2022-08-23T12:36:29.414Z,20.60
2022-08-23T12:38:41.114Z,20.60
2022-08-23T12:40:46.726Z,20.90
2022-08-23T12:42:51.412Z,20.80
2022-08-23T12:45:05.242Z,20.80
2022-08-23T12:47:14.569Z,20.90
2022-08-23T12:51:31.968Z,20.90
2022-08-23T12:53:44.518Z,20.90
2022-08-23T12:55:52.728Z,20.80
2022-08-23T12:57:59.746Z,20.70
2022-08-23T13:00:30.053Z,20.60
2022-08-23T13:02:37.316Z,20.60
2022-08-23T13:04:48.943Z,20.70
2022-08-23T13:06:58.597Z,20.70
2022-08-23T13:09:07.062Z,20.90
2022-08-23T13:11:15.036Z,20.80
2022-08-23T13:13:23.544Z,20.70
2022-08-23T13:15:44.193Z,20.80
2022-08-23T13:17:48.234Z,20.80
2022-08-23T13:19:55.476Z,20.90
2022-08-23T13:22:13.818Z,21.10
2022-08-23T13:24:38.055Z,21.10
2022-08-23T13:26:44.808Z,21.00
2022-08-23T13:29:14.948Z,21.00
2022-08-23T13:31:21.373Z,21.10
2022-08-23T13:33:25.454Z,21.20
2022-08-23T13:35:40.129Z,21.30
2022-08-23T13:37:48.335Z,21.60
2022-08-23T13:39:56.040Z,21.50
2022-08-23T13:42:03.882Z,21.40
2022-08-23T13:44:09.481Z,21.20
2022-08-23T13:46:19.249Z,21.10
2022-08-23T13:48:27.263Z,21.10
2022-08-23T13:50:34.653Z,21.30
2022-08-23T13:53:10.128Z,21.10
2022-08-23T13:55:13.348Z,21.10
2022-08-23T13:57:20.365Z,21.10
2022-08-23T13:59:31.363Z,21.20
2022-08-23T14:01:36.298Z,21.10
2022-08-23T14:03:41.151Z,21.20
2022-08-23T14:05:45.628Z,21.10
2022-08-23T14:07:53.412Z,20.80
2022-08-23T14:09:58.679Z,20.90
2022-08-23T14:12:06.374Z,20.90
2022-08-23T14:14:14.582Z,20.80
2022-08-23T14:16:39.972Z,20.70
2022-08-23T14:21:08.146Z,20.70
2022-08-23T14:23:13.844Z,20.80
2022-08-23T14:25:17.665Z,20.80
2022-08-23T14:27:21.453Z,20.70
2022-08-23T14:29:28.139Z,20.50
2022-08-23T14:31:32.290Z,20.30
2022-08-23T14:33:35.987Z,20.30
2022-08-23T14:35:39.925Z,20.20
2022-08-23T14:40:10.801Z,20.20
2022-08-23T14:42:18.302Z,20.10
2022-08-23T14:44:21.835Z,20.30
2022-08-23T14:46:28.339Z,20.20
2022-08-23T14:48:32.694Z,20.20
2022-08-23T14:50:36.589Z,20.20
2022-08-23T14:52:44.164Z,20.20
2022-08-23T14:54:50.670Z,20.10
2022-08-23T14:56:56.602Z,20.10
2022-08-23T14:59:01.210Z,20.00
2022-08-23T15:01:13.122Z,19.90
2022-08-23T15:03:21.208Z,19.90
2022-08-23T15:05:24.931Z,19.80
2022-08-23T15:07:31.329Z,19.70
2022-08-23T15:09:38.282Z,19.70
2022-08-23T15:14:09.583Z,19.70
2022-08-23T15:16:13.501Z,19.70
2022-08-23T15:18:18.358Z,19.70
2022-08-23T15:20:23.993Z,19.70
2022-08-23T15:22:27.891Z,19.70
2022-08-23T15:24:35.428Z,19.80
2022-08-23T15:26:39.919Z,19.90
2022-08-23T15:28:44.303Z,20.00
2022-08-23T15:30:49.806Z,20.00
2022-08-23T15:32:56.510Z,20.00
2022-08-23T15:37:08.554Z,20.00
2022-08-23T15:41:16.428Z,19.70
2022-08-23T15:43:21.554Z,19.60
2022-08-23T15:45:25.638Z,19.60
2022-08-23T15:47:33.342Z,19.60
2022-08-23T15:49:36.953Z,19.50
2022-08-23T15:51:41.984Z,19.50
2022-08-23T15:53:45.654Z,19.40
2022-08-23T15:55:49.739Z,19.30
2022-08-23T15:57:55.330Z,19.30
2022-08-23T15:59:59.951Z,19.30
2022-08-23T16:02:05.782Z,19.20
2022-08-23T16:04:11.738Z,19.20
2022-08-23T16:06:18.120Z,19.10
2022-08-23T16:08:24.988Z,19.10
2022-08-23T16:12:32.873Z,18.90
2022-08-23T16:14:38.844Z,18.90
2022-08-23T16:16:46.565Z,18.80
2022-08-23T16:18:53.871Z,18.70
2022-08-23T16:21:00.960Z,18.70
2022-08-23T16:23:04.961Z,18.70
2022-08-23T16:25:10.062Z,18.70
2022-08-23T16:27:13.732Z,18.70
2022-08-23T16:29:20.341Z,18.70
2022-08-23T16:31:39.130Z,18.80
2022-08-23T16:33:43.800Z,18.60
2022-08-23T16:35:49.751Z,18.60
2022-08-23T16:37:56.057Z,18.50
2022-08-23T16:42:08.654Z,18.40
2022-08-23T16:44:13.019Z,18.30
2022-08-23T16:46:17.635Z,18.30
2022-08-23T16:48:23.907Z,18.30
2022-08-23T16:50:30.530Z,18.30
2022-08-23T16:52:35.951Z,18.30
2022-08-23T16:54:43.085Z,18.30
2022-08-23T16:56:47.352Z,18.20
2022-08-23T16:58:51.994Z,18.20
2022-08-23T17:00:55.842Z,18.20
2022-08-23T17:03:01.628Z,18.30
2022-08-23T17:07:12.665Z,18.30
2022-08-23T17:09:18.490Z,18.20
2022-08-23T17:11:23.714Z,18.30
2022-08-23T17:13:33.905Z,18.20
2022-08-23T17:15:40.674Z,18.20
2022-08-23T17:19:53.070Z,18.20
2022-08-23T17:21:56.699Z,18.20
2022-08-23T17:24:02.072Z,18.20
2022-08-23T17:26:05.638Z,18.30
2022-08-23T17:28:13.676Z,18.20
2022-08-23T17:30:21.830Z,18.30
2022-08-23T17:32:25.189Z,18.40
2022-08-23T17:34:32.227Z,18.40
2022-08-23T17:36:39.198Z,18.40
2022-08-23T17:38:42.768Z,18.60
2022-08-23T17:40:47.352Z,18.70
2022-08-23T17:42:53.883Z,18.70
2022-08-23T17:45:09.063Z,18.60
2022-08-23T17:47:16.739Z,18.60
2022-08-23T17:49:25.387Z,18.50
2022-08-23T17:51:31.374Z,18.50
2022-08-23T17:53:35.353Z,18.50
2022-08-23T17:55:54.703Z,18.30
2022-08-23T17:58:03.937Z,18.30
2022-08-23T18:00:15.924Z,18.20
2022-08-23T18:02:22.344Z,18.20
2022-08-23T18:04:26.212Z,18.30
2022-08-23T18:06:31.313Z,18.30
2022-08-23T18:08:35.928Z,18.20
2022-08-23T18:10:40.478Z,18.20
2022-08-23T18:12:45.085Z,18.20
2022-08-23T18:14:48.847Z,18.20
2022-08-23T18:16:53.965Z,18.20
2022-08-23T18:19:02.434Z,18.10
2022-08-23T18:23:15.595Z,17.90
2022-08-23T18:25:20.944Z,18.10
2022-08-23T18:27:41.940Z,18.00
2022-08-23T18:29:45.883Z,17.90
2022-08-23T18:31:57.320Z,17.90
2022-08-23T18:34:01.883Z,17.70
2022-08-23T18:36:05.869Z,17.70
2022-08-23T18:38:12.644Z,17.60
2022-08-23T18:40:16.547Z,17.50
2022-08-23T18:42:21.200Z,17.50
2022-08-23T18:44:26.185Z,17.50
2022-08-23T18:48:38.959Z,17.30
2022-08-23T18:50:43.673Z,17.30
2022-08-23T18:52:47.741Z,17.30
2022-08-23T18:54:51.866Z,17.30
2022-08-23T18:56:55.791Z,17.30
2022-08-23T18:59:00.842Z,17.30
2022-08-23T19:01:21.149Z,17.30
2022-08-23T19:03:25.074Z,17.20
2022-08-23T19:05:41.764Z,17.20
2022-08-23T19:07:47.169Z,17.20
2022-08-23T19:09:54.548Z,17.10
2022-08-23T19:12:00.322Z,17.00
2022-08-23T19:14:04.159Z,17.00
2022-08-23T19:16:13.017Z,16.90
2022-08-23T19:21:00.343Z,16.80
2022-08-23T19:25:22.099Z,16.80
2022-08-23T19:27:26.121Z,16.90
2022-08-23T19:29:32.156Z,16.80
2022-08-23T19:31:41.701Z,16.80
2022-08-23T19:33:45.942Z,16.70
2022-08-23T19:35:55.418Z,16.70
2022-08-23T19:38:05.681Z,16.70
2022-08-23T19:40:14.600Z,16.60
2022-08-23T19:42:19.395Z,16.60
2022-08-23T19:44:23.415Z,16.50
2022-08-23T19:46:27.486Z,16.40
2022-08-23T19:50:42.576Z,16.40
2022-08-23T19:55:05.712Z,16.60
2022-08-23T19:57:13.873Z,16.50
2022-08-23T19:59:20.981Z,16.50
2022-08-23T20:01:27.671Z,16.50
2022-08-23T20:03:33.924Z,16.50
2022-08-23T20:05:39.326Z,16.60
2022-08-23T20:09:48.962Z,16.50
2022-08-23T20:11:53.365Z,16.50
2022-08-23T20:16:17.769Z,16.60
2022-08-23T20:18:22.493Z,16.60
2022-08-23T20:20:28.004Z,16.60
2022-08-23T20:22:50.657Z,16.60
2022-08-23T20:24:56.131Z,16.70
2022-08-23T20:27:02.499Z,16.70
2022-08-23T20:29:07.593Z,16.70
2022-08-23T20:31:21.421Z,16.90
2022-08-23T20:33:25.298Z,17.00
2022-08-23T20:35:31.533Z,17.00
2022-08-23T20:37:35.988Z,17.00
2022-08-23T20:39:43.135Z,17.00
2022-08-23T20:41:51.158Z,17.00
2022-08-23T20:43:55.868Z,17.00
2022-08-23T20:46:01.887Z,17.00
2022-08-23T20:50:14.850Z,17.10
2022-08-23T20:52:21.370Z,17.10
2022-08-23T20:54:25.065Z,17.20
2022-08-23T20:56:31.690Z,17.20
2022-08-23T20:58:37.076Z,17.30
2022-08-23T21:00:41.952Z,17.30
2022-08-23T21:04:52.647Z,17.20
2022-08-23T21:06:56.034Z,17.00
2022-08-23T21:09:07.687Z,17.00
2022-08-23T21:11:14.418Z,17.00
2022-08-23T21:13:18.096Z,17.00
2022-08-23T21:15:26.841Z,17.20
2022-08-23T21:17:31.414Z,17.20
2022-08-23T21:19:35.422Z,17.30
2022-08-23T21:21:42.925Z,17.30
2022-08-23T21:23:47.781Z,17.40
2022-08-23T21:25:55.504Z,17.40
2022-08-23T21:28:05.906Z,17.50
2022-08-23T21:30:11.560Z,17.60
2022-08-23T21:32:16.966Z,17.60
2022-08-23T21:34:20.892Z,17.40
2022-08-23T21:36:37.550Z,17.40
2022-08-23T21:38:42.415Z,17.40
2022-08-23T21:40:59.365Z,17.20
2022-08-23T21:43:04.390Z,17.20
2022-08-23T21:45:10.887Z,17.20
2022-08-23T21:47:17.360Z,17.20
2022-08-23T21:49:24.214Z,17.20
2022-08-23T21:51:28.209Z,17.10
2022-08-23T21:53:35.245Z,17.10
2022-08-23T21:55:39.596Z,17.00
2022-08-23T21:57:46.726Z,16.80
2022-08-23T21:59:52.806Z,16.70
2022-08-23T22:02:03.221Z,16.40
2022-08-23T22:04:27.370Z,16.30
2022-08-23T22:06:34.499Z,16.20
2022-08-23T22:08:41.521Z,16.20
2022-08-23T22:10:50.164Z,16.00
2022-08-23T22:13:05.724Z,15.90
2022-08-23T22:15:14.418Z,15.90
2022-08-23T22:17:19.383Z,15.80
2022-08-23T22:19:24.767Z,15.80
2022-08-23T22:21:31.446Z,15.80
2022-08-23T22:23:43.424Z,15.70
2022-08-23T22:25:47.499Z,15.60
2022-08-23T22:29:59.681Z,15.50
2022-08-23T22:32:03.882Z,15.40
2022-08-23T22:34:14.535Z,15.40
2022-08-23T22:36:23.006Z,15.30
2022-08-23T22:38:27.441Z,15.30
2022-08-23T22:40:31.734Z,15.30
2022-08-23T22:42:40.872Z,15.30
2022-08-23T22:44:47.662Z,15.20
2022-08-23T22:46:53.508Z,15.20
2022-08-23T22:49:00.470Z,15.20
2022-08-23T22:51:13.276Z,15.20
2022-08-23T22:53:23.494Z,15.10
2022-08-23T22:55:27.164Z,15.10
2022-08-23T22:57:32.380Z,15.30
2022-08-23T22:59:36.424Z,15.60
2022-08-23T23:03:51.453Z,15.50
2022-08-23T23:05:56.461Z,15.40
2022-08-23T23:08:20.981Z,15.40
2022-08-23T23:10:26.270Z,15.40
2022-08-23T23:12:34.581Z,15.40
2022-08-23T23:14:39.611Z,15.50
2022-08-23T23:16:43.873Z,15.60
2022-08-23T23:19:09.586Z,15.70
2022-08-23T23:21:13.180Z,16.00
2022-08-23T23:23:20.968Z,16.30
2022-08-23T23:25:32.673Z,16.60
2022-08-23T23:27:39.883Z,16.60
2022-08-23T23:29:43.928Z,16.80
2022-08-23T23:31:47.652Z,16.80
2022-08-23T23:33:54.365Z,16.80
2022-08-23T23:35:58.009Z,16.80
2022-08-23T23:38:05.984Z,16.90
2022-08-23T23:40:13.551Z,16.80
2022-08-23T23:42:19.981Z,16.70
2022-08-23T23:44:31.168Z,16.60
2022-08-23T23:46:35.416Z,16.50
2022-08-23T23:48:46.206Z,16.50
2022-08-23T23:50:52.586Z,16.50
2022-08-23T23:52:56.499Z,16.50
2022-08-23T23:57:07.297Z,16.50
2022-08-23T23:59:16.503Z,16.60
